Time;durP1;ratioP1;P1;durP2;ratioP2;P2;SDS_P1;SDS_P2;PMS_P1;PMS_P2;Temp;Humidity;BMP_temperature;BMP_pressure;BME280_temperature;BME280_humidity;BME280_pressure;Samples;Min_cycle;Max_cycle;Signal;HPM_P1;HPM_P2
2023/12/24 00:01:54;;;;;;;26.67;20.30;;;;;;;2.01;100.00;96844.19;5089131;28;20110;-68
2023/12/24 00:04:19;;;;;;;25.65;14.05;;;;;;;1.96;100.00;96844.34;5087353;28;20035;-68
2023/12/24 00:06:45;;;;;;;25.33;13.35;;;;;;;1.90;100.00;96842.00;5088879;28;20503;-68
2023/12/24 00:09:10;;;;;;;17.65;10.15;;;;;;;1.92;100.00;96847.13;5084166;28;20020;-68
2023/12/24 00:11:36;;;;;;;13.35;7.03;;;;;;;1.82;100.00;96838.84;5087811;28;20032;-68
2023/12/24 00:14:01;;;;;;;19.98;9.40;;;;;;;1.74;100.00;96848.69;5086727;28;20020;-67
2023/12/24 00:16:27;;;;;;;16.65;10.90;;;;;;;1.68;100.00;96837.63;5087288;28;20023;-68
2023/12/24 00:18:52;;;;;;;16.30;11.20;;;;;;;1.61;100.00;96848.31;5079804;28;20044;-68
2023/12/24 00:21:17;;;;;;;15.93;10.30;;;;;;;1.64;100.00;96859.41;5083741;28;20047;-68
2023/12/24 00:23:45;;;;;;;14.18;9.13;;;;;;;1.69;100.00;96861.84;5091337;28;20373;-68
2023/12/24 00:26:10;;;;;;;15.57;9.60;;;;;;;1.71;100.00;96865.22;5084709;28;20063;-68
2023/12/24 00:28:36;;;;;;;12.73;8.73;;;;;;;1.82;100.00;96862.22;5085946;28;20028;-68
2023/12/24 00:31:01;;;;;;;12.65;8.85;;;;;;;1.90;100.00;96869.72;5089524;28;20024;-68
2023/12/24 00:33:26;;;;;;;8.95;7.50;;;;;;;1.91;100.00;96869.66;5084809;28;20479;-68
2023/12/24 00:35:52;;;;;;;8.57;6.25;;;;;;;1.97;100.00;96856.44;5089175;28;20024;-68
2023/12/24 00:38:17;;;;;;;7.13;5.78;;;;;;;2.06;100.00;96863.03;5089888;28;20043;-68
2023/12/24 00:40:43;;;;;;;7.07;6.05;;;;;;;2.15;100.00;96867.84;5088373;28;20099;-68
2023/12/24 00:43:08;;;;;;;6.88;6.05;;;;;;;2.20;100.00;96861.59;5091930;28;20027;-68
2023/12/24 00:45:33;;;;;;;9.80;7.32;;;;;;;2.13;100.00;96858.44;5091674;28;20039;-68
2023/12/24 00:47:59;;;;;;;7.00;6.28;;;;;;;2.15;100.00;96859.22;5101400;28;20040;-68
2023/12/24 00:50:24;;;;;;;6.82;5.65;;;;;;;2.21;100.00;96856.34;5090722;28;20106;-67
2023/12/24 00:52:50;;;;;;;5.13;4.68;;;;;;;2.33;100.00;96854.19;5091166;28;20032;-68
2023/12/24 00:55:15;;;;;;;5.60;4.32;;;;;;;2.29;100.00;96851.69;5090835;28;20491;-68
2023/12/24 00:57:41;;;;;;;4.35;3.95;;;;;;;2.31;100.00;96853.38;5089204;28;20030;-68
2023/12/24 01:00:07;;;;;;;4.65;4.25;;;;;;;2.31;100.00;96848.19;5092073;28;20028;-68
2023/12/24 01:02:33;;;;;;;4.45;4.05;;;;;;;2.29;100.00;96859.47;5089616;28;20028;-67
2023/12/24 01:04:58;;;;;;;7.55;5.20;;;;;;;2.29;100.00;96856.88;5084110;28;20138;-68
2023/12/24 01:07:24;;;;;;;8.18;5.57;;;;;;;2.34;100.00;96848.91;5082992;28;20065;-68
2023/12/24 01:09:49;;;;;;;4.95;3.90;;;;;;;2.42;100.00;96848.59;5088351;28;20070;-68
2023/12/24 01:12:16;;;;;;;5.63;4.43;;;;;;;2.44;100.00;96851.97;5089645;28;20072;-68
2023/12/24 01:14:41;;;;;;;6.35;4.90;;;;;;;2.47;100.00;96843.22;5089747;28;20106;-68
2023/12/24 01:17:07;;;;;;;7.70;4.50;;;;;;;2.50;100.00;96848.28;5090743;28;20089;-67
2023/12/24 01:19:32;;;;;;;8.10;4.68;;;;;;;2.46;100.00;96838.94;5090055;28;20273;-68
2023/12/24 01:21:57;;;;;;;4.78;4.18;;;;;;;2.46;100.00;96842.38;5095470;28;20024;-68
2023/12/24 01:24:23;;;;;;;4.22;3.83;;;;;;;2.36;100.00;96835.88;5093262;28;20020;-68
2023/12/24 01:26:48;;;;;;;6.07;4.90;;;;;;;2.34;100.00;96822.91;5094038;28;20024;-68
2023/12/24 01:29:13;;;;;;;8.00;7.28;;;;;;;2.31;100.00;96815.25;5088612;28;20046;-68
2023/12/24 01:31:39;;;;;;;5.72;4.90;;;;;;;2.29;100.00;96806.69;5095806;28;20022;-68
2023/12/24 01:34:04;;;;;;;4.28;3.95;;;;;;;2.21;100.00;96803.53;5095194;28;20093;-68
2023/12/24 01:36:30;;;;;;;3.70;3.40;;;;;;;2.05;100.00;96801.56;5087818;28;20016;-68
2023/12/24 01:38:55;;;;;;;5.57;4.80;;;;;;;1.97;100.00;96814.00;5087677;28;20016;-67
2023/12/24 01:41:20;;;;;;;5.72;5.20;;;;;;;1.94;100.00;96812.41;5091179;28;20500;-68
2023/12/24 01:43:46;;;;;;;6.15;4.13;;;;;;;1.99;100.00;96814.81;5085111;28;20019;-68
2023/12/24 01:46:20;;;;;;;4.75;3.80;;;;;;;2.08;100.00;96824.84;5086622;28;20111;-68
2023/12/24 01:48:46;;;;;;;4.07;3.78;;;;;;;1.96;100.00;96818.38;5094423;28;20035;-68
2023/12/24 01:51:12;;;;;;;4.20;3.80;;;;;;;1.90;100.00;96825.56;5088773;28;20016;-68
2023/12/24 01:53:38;;;;;;;4.70;4.30;;;;;;;1.81;100.00;96818.97;5092157;28;20031;-68
2023/12/24 01:56:05;;;;;;;5.95;5.10;;;;;;;1.80;100.00;96827.66;5089368;28;20137;-68
2023/12/24 01:58:31;;;;;;;5.53;5.03;;;;;;;1.86;100.00;96827.41;5089642;28;20028;-67
2023/12/24 02:00:57;;;;;;;7.82;5.70;;;;;;;1.86;100.00;96835.22;5095289;28;20020;-67
2023/12/24 02:03:23;;;;;;;5.07;4.65;;;;;;;1.86;100.00;96827.41;5087301;28;20031;-68
2023/12/24 02:05:50;;;;;;;4.90;4.50;;;;;;;1.93;100.00;96828.03;5094042;28;20586;-68
2023/12/24 02:08:18;;;;;;;5.18;4.07;;;;;;;1.96;100.00;96820.97;5092315;28;20032;-67
2023/12/24 02:10:44;;;;;;;8.88;4.20;;;;;;;1.96;100.00;96817.50;5092348;28;20016;-68
2023/12/24 02:13:11;;;;;;;5.45;4.60;;;;;;;1.96;100.00;96813.19;5085697;28;20046;-68
2023/12/24 02:15:37;;;;;;;4.97;4.47;;;;;;;1.94;100.00;96809.81;5099651;28;20216;-68
2023/12/24 02:18:03;;;;;;;4.47;4.07;;;;;;;1.90;100.00;96804.78;5089984;28;20022;-68
2023/12/24 02:20:30;;;;;;;5.03;4.60;;;;;;;1.81;100.00;96803.41;5083658;28;20464;-68
2023/12/24 02:22:56;;;;;;;5.53;4.72;;;;;;;1.73;100.00;96800.25;5095494;28;20447;-67
2023/12/24 02:25:22;;;;;;;5.65;4.28;;;;;;;1.68;100.00;96797.84;5086264;28;20028;-68
2023/12/24 02:28:17;;;;;;;5.68;4.60;;;;;;;1.60;100.00;96799.91;5088507;28;20539;-68
2023/12/24 02:30:47;;;;;;;5.05;4.55;;;;;;;1.53;100.00;96796.69;5085378;28;20113;-68
2023/12/24 02:33:15;;;;;;;4.75;4.20;;;;;;;1.45;100.00;96791.78;5081259;28;20549;-67
2023/12/24 02:35:43;;;;;;;5.78;4.65;;;;;;;1.40;100.00;96797.13;5088029;28;20016;-68
2023/12/24 02:38:09;;;;;;;7.10;4.55;;;;;;;1.31;100.00;96781.94;5086404;28;20020;-68
2023/12/24 02:40:34;;;;;;;5.72;4.40;;;;;;;1.29;100.00;96768.19;5090558;28;20027;-68
2023/12/24 02:42:59;;;;;;;4.05;3.65;;;;;;;1.23;100.00;96766.66;5090213;28;20039;-68
2023/12/24 02:45:25;;;;;;;4.40;3.65;;;;;;;1.16;100.00;96754.81;5087371;28;20098;-68
2023/12/24 02:47:50;;;;;;;4.50;4.10;;;;;;;1.13;100.00;96760.13;5088470;28;20016;-68
2023/12/24 02:50:18;;;;;;;4.22;3.83;;;;;;;1.08;100.00;96762.88;5087123;28;20495;-68
2023/12/24 02:52:44;;;;;;;4.45;4.05;;;;;;;1.07;100.00;96761.19;5090031;28;20103;-68
2023/12/24 02:55:10;;;;;;;5.43;4.93;;;;;;;1.06;100.00;96758.66;5085378;28;20028;-68
2023/12/24 02:57:35;;;;;;;7.30;4.95;;;;;;;1.01;100.00;96764.03;5091440;28;20540;-68
2023/12/24 03:00:01;;;;;;;5.63;4.82;;;;;;;0.95;100.00;96759.03;5089215;28;20484;-68
2023/12/24 03:02:26;;;;;;;4.95;4.55;;;;;;;0.89;100.00;96756.69;5086626;28;20054;-68
2023/12/24 03:04:51;;;;;;;5.45;4.13;;;;;;;0.75;100.00;96755.44;5091443;28;20426;-68
2023/12/24 03:07:17;;;;;;;4.63;4.22;;;;;;;0.71;100.00;96753.84;5089351;28;20031;-67
2023/12/24 03:09:42;;;;;;;4.60;4.10;;;;;;;0.66;100.00;96748.00;5087512;28;20016;-67
2023/12/24 03:12:08;;;;;;;4.40;4.10;;;;;;;0.69;100.00;96745.28;5089785;28;20104;-67
2023/12/24 03:14:33;;;;;;;4.57;3.72;;;;;;;0.67;100.00;96741.91;5083645;28;20059;-68
2023/12/24 03:16:58;;;;;;;3.97;3.58;;;;;;;0.71;100.00;96746.94;5088247;28;20020;-67
2023/12/24 03:19:24;;;;;;;4.03;3.72;;;;;;;0.73;100.00;96746.03;5088234;28;20127;-68
2023/12/24 03:21:49;;;;;;;4.45;4.00;;;;;;;0.70;100.00;96742.66;5087357;28;20074;-68
2023/12/24 03:24:15;;;;;;;5.05;4.10;;;;;;;0.68;100.00;96744.47;5085405;28;20021;-68
2023/12/24 03:26:40;;;;;;;4.03;3.72;;;;;;;0.64;100.00;96745.44;5092359;28;20078;-68
2023/12/24 03:29:05;;;;;;;4.10;3.70;;;;;;;0.60;100.00;96748.22;5091767;28;20012;-68
2023/12/24 03:31:31;;;;;;;3.85;3.55;;;;;;;0.54;100.00;96746.69;5088532;28;20028;-68
2023/12/24 03:33:56;;;;;;;5.65;3.65;;;;;;;0.48;100.00;96747.75;5091497;28;20115;-68
2023/12/24 03:36:22;;;;;;;4.28;3.88;;;;;;;0.42;100.00;96758.31;5089126;28;20039;-68
2023/12/24 03:38:48;;;;;;;4.40;4.00;;;;;;;0.41;100.00;96751.44;5090038;28;20020;-68
2023/12/24 03:41:13;;;;;;;4.43;4.03;;;;;;;0.41;100.00;96752.28;5089885;28;20024;-68
2023/12/24 03:43:38;;;;;;;4.53;4.15;;;;;;;0.38;100.00;96751.56;5087417;28;20415;-67
2023/12/24 03:46:04;;;;;;;4.68;4.20;;;;;;;0.34;100.00;96744.81;5092283;28;20020;-68
2023/12/24 03:48:31;;;;;;;5.65;3.53;;;;;;;0.31;100.00;96734.53;5088896;28;20078;-68
2023/12/24 03:50:57;;;;;;;4.25;3.85;;;;;;;0.24;100.00;96723.56;5092712;28;20051;-68
2023/12/24 03:53:22;;;;;;;4.28;3.88;;;;;;;0.10;100.00;96730.03;5089062;28;20462;-67
2023/12/24 03:55:48;;;;;;;8.23;5.43;;;;;;;0.09;100.00;96732.66;5085459;28;20395;-67
2023/12/24 03:58:13;;;;;;;3.38;3.13;;;;;;;0.06;100.00;96730.19;5087642;28;20016;-67
2023/12/24 04:00:39;;;;;;;5.60;4.60;;;;;;;0.02;100.00;96726.00;5085610;28;20016;-68
2023/12/24 04:03:04;;;;;;;5.40;4.30;;;;;;;0.02;100.00;96728.59;5087804;28;20164;-67
2023/12/24 04:05:30;;;;;;;5.30;4.38;;;;;;;-0.01;100.00;96727.81;5088591;28;20392;-67
2023/12/24 04:07:55;;;;;;;5.30;4.47;;;;;;;0.03;100.00;96731.16;5094875;28;20054;-67
2023/12/24 04:10:21;;;;;;;6.15;5.00;;;;;;;0.00;100.00;96728.66;5085219;28;20020;-67
2023/12/24 04:12:46;;;;;;;5.22;4.25;;;;;;;-0.05;100.00;96734.00;5085990;28;20024;-67
2023/12/24 04:15:11;;;;;;;5.53;4.88;;;;;;;-0.03;100.00;96737.38;5087995;28;20023;-67
2023/12/24 04:17:37;;;;;;;7.70;6.00;;;;;;;0.00;100.00;96731.25;5090474;28;20465;-67
2023/12/24 04:20:04;;;;;;;8.27;5.70;;;;;;;-0.03;100.00;96736.50;5088013;28;20507;-67
2023/12/24 04:22:30;;;;;;;9.63;7.30;;;;;;;-0.08;100.00;96728.91;5094153;28;20016;-67
2023/12/24 04:24:57;;;;;;;7.80;6.10;;;;;;;-0.06;100.00;96734.88;5096235;28;20019;-68
2023/12/24 04:27:22;;;;;;;9.00;6.43;;;;;;;-0.08;100.00;96736.69;5095564;28;20560;-68
2023/12/24 04:29:48;;;;;;;8.15;6.55;;;;;;;-0.14;100.00;96736.88;5095092;28;20121;-68
2023/12/24 04:32:13;;;;;;;11.20;6.72;;;;;;;-0.15;100.00;96740.34;5096794;28;20035;-68
2023/12/24 04:34:39;;;;;;;9.10;6.45;;;;;;;-0.16;100.00;96742.09;5086349;28;20024;-67
2023/12/24 04:37:04;;;;;;;10.63;7.05;;;;;;;-0.15;100.00;96737.75;5093230;28;20107;-68
2023/12/24 04:39:30;;;;;;;6.93;5.93;;;;;;;-0.15;100.00;96742.94;5095113;28;20515;-67
2023/12/24 04:41:55;;;;;;;7.85;6.13;;;;;;;-0.19;100.00;96731.84;5088472;28;20128;-67
2023/12/24 04:44:20;;;;;;;8.35;6.03;;;;;;;-0.19;100.00;96741.34;5092589;28;20127;-68
2023/12/24 04:46:47;;;;;;;10.27;6.22;;;;;;;-0.23;100.00;96729.41;5089502;28;20032;-67
2023/12/24 04:49:12;;;;;;;5.78;5.15;;;;;;;-0.27;100.00;96728.66;5096221;28;20579;-68
2023/12/24 04:51:38;;;;;;;8.68;5.80;;;;;;;-0.25;100.00;96737.22;5089922;28;20035;-67
2023/12/24 04:54:03;;;;;;;7.00;6.30;;;;;;;-0.28;100.00;96741.66;5095876;28;20052;-67
2023/12/24 04:56:31;;;;;;;7.07;6.10;;;;;;;-0.30;100.00;96734.78;5095445;28;20437;-68
2023/12/24 04:58:57;;;;;;;16.33;11.73;;;;;;;-0.28;100.00;96728.72;5095449;28;20483;-68
2023/12/24 05:01:22;;;;;;;9.88;8.55;;;;;;;-0.33;100.00;96721.97;5092384;28;20020;-68
2023/12/24 05:03:48;;;;;;;9.02;7.53;;;;;;;-0.34;100.00;96722.81;5096234;28;20560;-67
2023/12/24 05:06:13;;;;;;;10.20;8.07;;;;;;;-0.38;100.00;96726.41;5094519;28;20119;-68
2023/12/24 05:08:42;;;;;;;10.27;8.27;;;;;;;-0.41;100.00;96717.91;5097200;28;20028;-67
2023/12/24 05:11:08;;;;;;;13.45;11.20;;;;;;;-0.42;100.00;96724.00;5087201;28;20400;-68
2023/12/24 05:13:37;;;;;;;13.05;9.70;;;;;;;-0.42;100.00;96719.66;5095694;28;20031;-67
2023/12/24 05:16:05;;;;;;;17.20;12.13;;;;;;;-0.40;100.00;96717.84;5091333;28;20024;-68
2023/12/24 05:18:33;;;;;;;12.80;9.20;;;;;;;-0.41;100.00;96711.00;5093585;28;20032;-67
2023/12/24 05:20:58;;;;;;;11.25;10.02;;;;;;;-0.48;100.00;96712.09;5098322;28;20020;-68
2023/12/24 05:23:25;;;;;;;12.45;9.88;;;;;;;-0.54;100.00;96707.13;5098014;28;20032;-68
2023/12/24 05:25:50;;;;;;;13.40;8.75;;;;;;;-0.58;100.00;96703.78;5094525;28;20534;-68
2023/12/24 05:28:17;;;;;;;10.65;8.52;;;;;;;-0.56;100.00;96698.53;5096798;28;20032;-68
2023/12/24 05:30:42;;;;;;;8.10;6.78;;;;;;;-0.58;100.00;96699.44;5086346;28;20081;-67
2023/12/24 05:33:08;;;;;;;8.75;7.07;;;;;;;-0.55;100.00;96702.81;5097024;28;20052;-68
2023/12/24 05:35:33;;;;;;;8.77;7.88;;;;;;;-0.59;100.00;96717.59;5092275;28;20480;-67
2023/12/24 05:37:59;;;;;;;14.27;8.55;;;;;;;-0.60;100.00;96715.91;5093520;28;20047;-67
2023/12/24 05:40:24;;;;;;;13.48;9.55;;;;;;;-0.69;100.00;96717.03;5095436;28;20028;-67
2023/12/24 05:42:49;;;;;;;9.52;8.57;;;;;;;-0.70;100.00;96715.34;5091631;28;20044;-68
2023/12/24 05:45:15;;;;;;;10.20;8.32;;;;;;;-0.69;100.00;96724.81;5095047;28;20036;-68
2023/12/24 05:47:40;;;;;;;10.38;8.25;;;;;;;-0.72;100.00;96732.66;5097361;28;20040;-67
2023/12/24 05:50:09;;;;;;;9.68;8.27;;;;;;;-0.76;100.00;96734.47;5087596;28;20400;-68
2023/12/24 05:52:35;;;;;;;12.85;10.43;;;;;;;-0.72;100.00;96740.41;5094377;28;20046;-67
2023/12/24 05:55:01;;;;;;;18.45;13.50;;;;;;;-0.72;100.00;96748.19;5094746;28;20571;-67
2023/12/24 05:57:26;;;;;;;14.07;11.70;;;;;;;-0.79;100.00;96754.41;5091660;28;20059;-68
2023/12/24 05:59:51;;;;;;;11.73;9.90;;;;;;;-0.80;100.00;96752.72;5096031;28;20495;-67
2023/12/24 06:02:20;;;;;;;15.52;9.45;;;;;;;-0.82;100.00;96757.94;5092963;28;20071;-68
2023/12/24 06:04:45;;;;;;;15.55;11.15;;;;;;;-0.85;100.00;96746.84;5094030;28;20447;-67
2023/12/24 06:07:11;;;;;;;14.55;10.60;;;;;;;-0.83;100.00;96758.84;5096067;28;20034;-68
2023/12/24 06:09:36;;;;;;;13.85;11.25;;;;;;;-0.83;100.00;96760.56;5096237;28;20032;-67
2023/12/24 06:12:02;;;;;;;14.82;10.15;;;;;;;-0.87;100.00;96768.41;5085465;28;20024;-67
2023/12/24 06:14:28;;;;;;;11.55;9.20;;;;;;;-0.88;100.00;96761.56;5090451;28;20013;-68
2023/12/24 06:16:53;;;;;;;10.35;9.25;;;;;;;-0.88;100.00;96764.16;5093804;28;20468;-68
2023/12/24 06:19:18;;;;;;;11.75;9.27;;;;;;;-0.90;100.00;96760.75;5093882;28;20055;-67
2023/12/24 06:21:44;;;;;;;10.25;8.40;;;;;;;-0.90;100.00;96758.19;5098751;28;20451;-67
2023/12/24 06:24:09;;;;;;;8.50;7.03;;;;;;;-0.91;100.00;96750.44;5092538;28;20103;-68
2023/12/24 06:26:35;;;;;;;8.88;7.05;;;;;;;-0.92;100.00;96753.94;5092916;28;20093;-68
2023/12/24 06:29:00;;;;;;;7.75;6.95;;;;;;;-0.94;100.00;96763.47;5094730;28;20024;-67
2023/12/24 06:31:26;;;;;;;10.15;8.63;;;;;;;-0.98;100.00;96760.16;5086370;28;20035;-68
2023/12/24 06:33:51;;;;;;;10.85;9.40;;;;;;;-0.99;100.00;96760.19;5090008;28;20062;-67
2023/12/24 06:36:17;;;;;;;9.65;7.82;;;;;;;-1.01;100.00;96757.63;5095783;28;20035;-68
2023/12/24 06:38:43;;;;;;;11.00;8.38;;;;;;;-1.00;100.00;96761.91;5086304;28;20028;-68
2023/12/24 06:41:08;;;;;;;9.27;8.38;;;;;;;-0.98;100.00;96760.16;5093672;28;20699;-68
2023/12/24 06:43:34;;;;;;;8.73;7.47;;;;;;;-0.99;100.00;96766.22;5094536;28;20077;-68
2023/12/24 06:45:59;;;;;;;8.65;7.85;;;;;;;-1.03;100.00;96772.34;5093450;28;20439;-68
2023/12/24 06:48:24;;;;;;;7.85;7.05;;;;;;;-1.07;100.00;96773.31;5089924;28;20390;-67
2023/12/24 06:50:50;;;;;;;7.45;6.75;;;;;;;-1.08;100.00;96775.06;5090643;28;20110;-68
2023/12/24 06:53:16;;;;;;;11.07;9.93;;;;;;;-1.06;100.00;96780.19;5093437;28;20040;-68
2023/12/24 06:55:42;;;;;;;17.92;11.57;;;;;;;-1.02;100.00;96776.63;5092544;28;20028;-68
2023/12/24 06:58:07;;;;;;;12.75;9.73;;;;;;;-1.03;100.00;96774.91;5091233;28;20097;-68
2023/12/24 07:00:33;;;;;;;8.00;7.18;;;;;;;-1.09;100.00;96775.97;5090016;28;20024;-68
2023/12/24 07:02:59;;;;;;;9.90;8.93;;;;;;;-1.08;100.00;96771.63;5089817;28;20119;-68
2023/12/24 07:05:24;;;;;;;9.55;8.65;;;;;;;-1.11;100.00;96775.13;5089674;28;20059;-68
2023/12/24 07:07:50;;;;;;;11.57;7.75;;;;;;;-1.15;100.00;96781.28;5088741;28;20034;-67
2023/12/24 07:10:15;;;;;;;9.35;8.10;;;;;;;-1.16;100.00;96777.88;5093621;28;20039;-67
2023/12/24 07:12:40;;;;;;;11.00;9.90;;;;;;;-1.13;100.00;96776.09;5090586;28;20040;-68
2023/12/24 07:15:07;;;;;;;15.35;13.80;;;;;;;-1.17;100.00;96778.75;5088080;28;20473;-68
2023/12/24 07:17:33;;;;;;;12.40;11.13;;;;;;;-1.17;100.00;96778.75;5093004;28;20048;-67
2023/12/24 07:19:59;;;;;;;11.82;10.63;;;;;;;-1.17;100.00;96773.59;5088284;28;20158;-68
2023/12/24 07:22:24;;;;;;;11.98;10.88;;;;;;;-1.17;100.00;96773.59;5094184;28;20085;-67
2023/12/24 07:24:50;;;;;;;19.85;13.15;;;;;;;-1.14;100.00;96769.22;5091574;28;20035;-67
2023/12/24 07:27:15;;;;;;;16.27;14.07;;;;;;;-1.13;100.00;96755.41;5091545;28;20043;-67
2023/12/24 07:29:41;;;;;;;13.85;12.35;;;;;;;-1.12;100.00;96760.53;5092044;28;20097;-69
2023/12/24 07:32:06;;;;;;;14.90;13.40;;;;;;;-1.10;100.00;96757.91;5088448;28;20067;-67
2023/12/24 07:34:32;;;;;;;12.15;10.95;;;;;;;-1.10;100.00;96757.91;5088788;28;20035;-69
2023/12/24 07:36:57;;;;;;;11.98;10.57;;;;;;;-1.11;100.00;96753.63;5086405;28;20020;-69
2023/12/24 07:39:22;;;;;;;14.43;12.93;;;;;;;-1.16;100.00;96758.91;5085690;28;20162;-68
2023/12/24 07:41:48;;;;;;;13.93;12.52;;;;;;;-1.16;100.00;96759.78;5087970;28;20028;-69
2023/12/24 07:44:13;;;;;;;13.95;10.65;;;;;;;-1.14;100.00;96762.31;5090117;28;20024;-69
2023/12/24 07:46:39;;;;;;;13.98;11.10;;;;;;;-1.12;100.00;96757.94;5090862;28;20024;-69
2023/12/24 07:49:04;;;;;;;15.32;11.40;;;;;;;-1.09;100.00;96767.34;5091206;28;20055;-69
2023/12/24 07:51:29;;;;;;;12.18;10.98;;;;;;;-1.09;100.00;96757.00;5087590;28;20029;-69
2023/12/24 07:53:55;;;;;;;13.48;12.07;;;;;;;-1.07;100.00;96762.97;5073860;28;20032;-70
2023/12/24 07:56:20;;;;;;;19.33;14.65;;;;;;;-1.04;100.00;96760.31;5092258;28;20035;-69
2023/12/24 07:58:45;;;;;;;18.42;16.10;;;;;;;-0.99;100.00;96761.03;5095012;28;20024;-69
2023/12/24 08:01:11;;;;;;;24.45;18.38;;;;;;;-0.96;100.00;96752.34;5087663;28;20158;-69
2023/12/24 08:03:37;;;;;;;21.92;18.05;;;;;;;-0.96;100.00;96758.38;5091150;28;20099;-69
2023/12/24 08:06:03;;;;;;;26.15;19.85;;;;;;;-0.95;100.00;96766.94;5090798;28;20091;-70
2023/12/24 08:08:28;;;;;;;23.25;18.92;;;;;;;-0.94;100.00;96758.31;5093891;28;20060;-68
2023/12/24 08:10:53;;;;;;;14.38;12.70;;;;;;;-0.95;100.00;96761.78;5095164;28;20024;-69
2023/12/24 08:13:19;;;;;;;15.23;13.63;;;;;;;-0.92;100.00;96762.53;5088504;28;20427;-69
2023/12/24 08:15:44;;;;;;;15.85;14.05;;;;;;;-0.92;100.00;96762.53;5094150;28;20101;-69
2023/12/24 08:18:09;;;;;;;16.83;15.02;;;;;;;-0.86;100.00;96769.28;5090106;28;20047;-69
2023/12/24 08:20:35;;;;;;;19.00;17.02;;;;;;;-0.83;100.00;96763.16;5090027;28;20048;-70
2023/12/24 08:23:00;;;;;;;18.00;16.10;;;;;;;-0.83;100.00;96766.59;5089430;28;20066;-69
2023/12/24 08:25:26;;;;;;;23.05;18.55;;;;;;;-0.82;100.00;96764.84;5085809;28;20107;-68
2023/12/24 08:27:51;;;;;;;23.73;18.90;;;;;;;-0.88;100.00;96764.16;5085499;28;20162;-67
2023/12/24 08:30:18;;;;;;;18.60;16.60;;;;;;;-0.87;100.00;96755.50;5084183;28;20032;-67
2023/12/24 08:32:43;;;;;;;22.88;18.48;;;;;;;-0.90;100.00;96765.06;5089807;28;20028;-69
2023/12/24 08:35:10;;;;;;;25.10;18.75;;;;;;;-0.88;100.00;96764.16;5090299;28;20542;-70
2023/12/24 08:37:36;;;;;;;25.60;19.10;;;;;;;-0.84;100.00;96762.31;5095076;28;20034;-68
2023/12/24 08:40:02;;;;;;;25.58;19.33;;;;;;;-0.83;100.00;96773.50;5091072;28;20111;-67
2023/12/24 08:42:27;;;;;;;21.75;15.02;;;;;;;-0.81;100.00;96779.47;5092320;28;20472;-67
2023/12/24 08:44:53;;;;;;;19.13;13.82;;;;;;;-0.82;100.00;96777.78;5093917;28;20361;-66
2023/12/24 08:47:18;;;;;;;19.33;15.82;;;;;;;-0.78;100.00;96771.63;5091383;28;20043;-65
2023/12/24 08:49:43;;;;;;;22.67;14.45;;;;;;;-0.69;100.00;96776.53;5091037;28;20598;-66
2023/12/24 08:52:09;;;;;;;23.52;17.63;;;;;;;-0.65;100.00;96770.38;5082937;28;20096;-68
2023/12/24 08:54:35;;;;;;;22.90;16.95;;;;;;;-0.60;100.00;96771.06;5092715;28;20056;-66
2023/12/24 08:57:00;;;;;;;21.48;15.45;;;;;;;-0.56;100.00;96774.41;5087046;28;20024;-64
2023/12/24 08:59:25;;;;;;;19.05;15.57;;;;;;;-0.52;100.00;96770.00;5088087;28;20028;-64
2023/12/24 09:01:51;;;;;;;61.83;29.17;;;;;;;-0.46;100.00;96774.97;5086634;28;20036;-66
2023/12/24 09:04:16;;;;;;;20.75;16.08;;;;;;;-0.42;100.00;96776.56;5091454;28;20591;-66
2023/12/24 09:06:43;;;;;;;15.15;12.45;;;;;;;-0.38;100.00;96774.75;5096013;28;20020;-66
2023/12/24 09:09:08;;;;;;;21.83;16.60;;;;;;;-0.37;100.00;96779.84;5097917;28;20031;-66
2023/12/24 09:11:34;;;;;;;15.75;13.65;;;;;;;-0.32;100.00;96779.72;5093688;28;20024;-66
2023/12/24 09:13:59;;;;;;;14.77;13.23;;;;;;;-0.26;100.00;96783.88;5095866;28;20024;-66
2023/12/24 09:16:25;;;;;;;15.13;13.55;;;;;;;-0.22;100.00;96785.47;5088951;28;20107;-66
2023/12/24 09:18:50;;;;;;;16.00;13.05;;;;;;;-0.16;100.00;96778.34;5092005;28;20100;-65
2023/12/24 09:21:16;;;;;;;25.42;19.30;;;;;;;-0.11;100.00;96774.75;5095724;28;20102;-64
2023/12/24 09:23:41;;;;;;;17.60;14.13;;;;;;;-0.11;100.00;96777.34;5095641;28;20016;-66
2023/12/24 09:26:06;;;;;;;15.05;13.45;;;;;;;-0.09;100.00;96768.66;5089147;28;20481;-65
2023/12/24 09:28:32;;;;;;;14.52;13.02;;;;;;;-0.05;100.00;96770.25;5091342;28;20024;-65
2023/12/24 09:30:57;;;;;;;25.73;19.17;;;;;;;-0.03;100.00;96765.84;5090013;28;20084;-65
2023/12/24 09:33:22;;;;;;;105.03;47.72;;;;;;;0.02;100.00;96770.03;5089927;28;20020;-65
2023/12/24 09:35:49;;;;;;;100.93;47.47;;;;;;;0.01;100.00;96761.44;5095854;28;20023;-66
2023/12/24 09:38:15;;;;;;;84.22;40.35;;;;;;;0.09;100.00;96764.59;5089244;28;20032;-65
2023/12/24 09:40:41;;;;;;;69.10;35.97;;;;;;;0.26;100.00;96766.63;5087010;28;20028;-65
2023/12/24 09:43:08;;;;;;;77.45;35.92;;;;;;;0.65;100.00;96754.91;5089534;28;20020;-66
2023/12/24 09:45:37;;;;;;;52.35;26.17;;;;;;;1.03;100.00;96753.56;5091464;28;20020;-66
2023/12/24 09:48:03;;;;;;;24.50;14.75;;;;;;;1.34;100.00;96747.25;5088672;28;20388;-66
2023/12/24 09:50:28;;;;;;;23.58;17.73;;;;;;;1.63;100.00;96753.03;5089870;28;20027;-65
2023/12/24 09:52:54;;;;;;;12.23;10.98;;;;;;;1.99;100.00;96745.53;5090094;28;20031;-66
2023/12/24 09:55:19;;;;;;;15.95;14.30;;;;;;;2.34;100.00;96760.53;5089710;28;20073;-66
2023/12/24 09:57:45;;;;;;;23.15;20.88;;;;;;;2.59;100.00;96769.88;5087107;28;20008;-65
2023/12/24 10:00:12;;;;;;;16.88;15.18;;;;;;;2.89;100.00;96766.03;5093655;28;20023;-67
2023/12/24 10:02:37;;;;;;;16.38;14.77;;;;;;;3.05;100.00;96777.44;5089488;28;20077;-66
2023/12/24 10:05:03;;;;;;;14.50;13.20;;;;;;;3.25;100.00;96773.94;5088716;28;20032;-66
2023/12/24 10:07:39;;;;;;;12.63;11.35;;;;;;;3.54;100.00;96779.56;5088604;28;20012;-68
2023/12/24 10:10:07;;;;;;;9.30;8.27;;;;;;;3.80;100.00;96787.03;5089104;28;20401;-66
2023/12/24 10:12:32;;;;;;;6.35;5.50;;;;;;;4.00;100.00;96765.25;5094919;28;20028;-66
2023/12/24 10:14:58;;;;;;;7.05;6.20;;;;;;;4.21;100.00;96752.09;5086697;28;20038;-66
2023/12/24 10:17:30;;;;;;;6.32;5.72;;;;;;;4.53;100.00;96747.00;5088345;28;20032;-66
2023/12/24 10:19:57;;;;;;;7.50;6.88;;;;;;;4.68;100.00;96727.97;5090308;28;20126;-66
2023/12/24 10:22:23;;;;;;;7.20;6.68;;;;;;;4.88;100.00;96720.84;5092859;28;20020;-66
2023/12/24 10:24:49;;;;;;;8.00;7.40;;;;;;;5.06;100.00;96713.78;5094190;28;20774;-66
2023/12/24 10:27:15;;;;;;;5.00;4.57;;;;;;;5.23;100.00;96715.50;5086993;28;20101;-68
2023/12/24 10:29:44;;;;;;;3.42;3.13;;;;;;;5.33;100.00;96694.09;5091472;28;20044;-66
2023/12/24 10:32:10;;;;;;;4.00;3.67;;;;;;;5.27;100.00;96671.78;5092881;28;20641;-66
2023/12/24 10:34:37;;;;;;;4.65;4.20;;;;;;;5.43;100.00;96666.53;5086688;28;20024;-66
2023/12/24 10:37:19;;;;;;;4.25;3.78;;;;;;;5.40;100.00;96644.03;5080781;28;20093;-65
2023/12/24 10:39:45;;;;;;;8.30;7.25;;;;;;;5.59;100.00;96637.78;5093619;28;20148;-66
2023/12/24 10:42:10;;;;;;;4.00;3.70;;;;;;;5.49;100.00;96626.19;5090522;28;20038;-66
2023/12/24 10:44:36;;;;;;;3.95;3.53;;;;;;;5.63;100.00;96618.38;5094497;28;20016;-66
2023/12/24 10:47:03;;;;;;;3.20;2.97;;;;;;;5.69;100.00;96612.81;5089207;28;20162;-66
2023/12/24 10:49:29;;;;;;;4.07;3.03;;;;;;;5.84;100.00;96605.84;5092933;28;20028;-67
2023/12/24 10:51:56;;;;;;;2.83;2.70;;;;;;;5.93;100.00;96607.09;5086563;28;20077;-66
2023/12/24 10:54:22;;;;;;;4.97;3.60;;;;;;;6.08;100.00;96601.88;5095059;28;20085;-66
2023/12/24 10:57:00;;;;;;;3.47;3.22;;;;;;;6.29;100.00;96603.22;5090553;28;20031;-66
2023/12/24 10:59:50;;;;;;;3.78;3.47;;;;;;;6.43;100.00;96607.63;5090279;28;20058;-67
2023/12/24 11:02:16;;;;;;;2.30;2.20;;;;;;;6.54;100.00;96611.34;5086851;28;20032;-66
2023/12/24 11:04:46;;;;;;;2.80;2.60;;;;;;;6.59;100.00;96618.00;5094197;28;20039;-66
2023/12/24 11:07:33;;;;;;;1.60;1.50;;;;;;;6.71;100.00;96613.78;5093941;28;20067;-66
2023/12/24 11:10:04;;;;;;;1.90;1.80;;;;;;;6.71;100.00;96612.91;5090378;28;20035;-66
2023/12/24 11:12:31;;;;;;;4.57;4.15;;;;;;;6.68;100.00;96610.50;5092721;28;20062;-66
2023/12/24 11:14:57;;;;;;;26.35;13.50;;;;;;;6.83;100.00;96613.94;5088213;28;20027;-65
2023/12/24 11:17:49;;;;;;;18.20;16.25;;;;;;;6.87;100.00;96600.56;5089798;28;20084;-67
2023/12/24 11:20:18;;;;;;;8.43;6.68;;;;;;;7.02;100.00;96598.75;5082918;28;20570;-65